Time;durP1;ratioP1;P1;durP2;ratioP2;P2;SDS_P1;SDS_P2;PMS_P1;PMS_P2;Temp;Humidity;BMP_temperature;BMP_pressure;BME280_temperature;BME280_humidity;BME280_pressure;Samples;Min_cycle;Max_cycle;Signal;HPM_P1;HPM_P2
2023/01/01 00:00:45;;;;;;;21.50;8.03;;;15.50;1.00;;;;;;4953516;29;20222;-48
2023/01/01 00:03:11;;;;;;;56.90;34.73;;;15.50;1.00;;;;;;4953492;29;20475;-48
2023/01/01 00:05:38;;;;;;;12.23;6.50;;;15.50;1.00;;;;;;4950182;28;20966;-48
2023/01/01 00:08:04;;;;;;;15.70;6.77;;;15.50;1.00;;;;;;4948812;29;20201;-49
2023/01/01 00:10:29;;;;;;;14.07;5.33;;;15.50;1.00;;;;;;4952132;28;20441;-47
2023/01/01 00:12:59;;;;;;;13.03;5.70;;;15.60;1.00;;;;;;4936815;29;20198;-46
2023/01/01 00:15:26;;;;;;;14.93;5.83;;;15.60;1.00;;;;;;4944782;28;20280;-48
2023/01/01 00:17:52;;;;;;;12.63;5.23;;;15.60;1.00;;;;;;4953748;28;20429;-48
2023/01/01 00:20:18;;;;;;;18.97;6.03;;;15.70;1.00;;;;;;4953172;29;20476;-47
2023/01/01 00:22:43;;;;;;;17.93;6.53;;;15.70;1.00;;;;;;4948141;29;20575;-47
2023/01/01 00:25:13;;;;;;;15.70;6.40;;;15.70;1.00;;;;;;4943094;29;20288;-48
2023/01/01 00:27:39;;;;;;;16.27;6.53;;;15.60;1.00;;;;;;4952796;28;20196;-47
2023/01/01 00:30:05;;;;;;;20.90;5.87;;;15.60;1.00;;;;;;4926209;29;20453;-52
2023/01/01 00:32:31;;;;;;;22.20;6.67;;;15.60;1.00;;;;;;4951582;29;20453;-47
2023/01/01 00:34:56;;;;;;;17.30;8.07;;;15.60;1.00;;;;;;4937511;29;20445;-47
2023/01/01 00:37:22;;;;;;;15.53;7.10;;;15.60;1.00;;;;;;4932959;29;20602;-47
2023/01/01 00:39:47;;;;;;;16.70;6.93;;;15.60;1.00;;;;;;4933209;29;20285;-47
2023/01/01 00:42:13;;;;;;;25.33;8.97;;;15.60;1.00;;;;;;4932805;28;20248;-48
2023/01/01 00:44:38;;;;;;;21.50;6.93;;;15.60;1.00;;;;;;4932501;29;20830;-47
2023/01/01 00:47:04;;;;;;;18.30;7.23;;;15.60;1.00;;;;;;4932785;29;20194;-48
2023/01/01 00:49:30;;;;;;;13.40;6.90;;;15.60;1.00;;;;;;4932160;28;20190;-47
2023/01/01 00:51:55;;;;;;;17.67;7.37;;;15.60;1.00;;;;;;4932617;29;20248;-47
2023/01/01 00:54:21;;;;;;;16.57;7.13;;;15.60;1.00;;;;;;4929874;28;20693;-46
2023/01/01 00:56:46;;;;;;;14.73;7.50;;;15.70;1.00;;;;;;4952327;28;20212;-48
2023/01/01 00:59:12;;;;;;;15.63;7.30;;;15.70;1.00;;;;;;4952920;29;20205;-48
2023/01/01 01:01:39;;;;;;;14.53;7.60;;;15.70;1.00;;;;;;4953332;29;20184;-47
2023/01/01 01:04:05;;;;;;;22.40;8.47;;;15.70;1.00;;;;;;4953370;28;20202;-47
2023/01/01 01:06:31;;;;;;;15.07;6.70;;;15.60;1.00;;;;;;4953763;29;20754;-47
2023/01/01 01:08:56;;;;;;;19.80;6.70;;;15.60;1.00;;;;;;4936125;28;20883;-47
2023/01/01 01:11:23;;;;;;;18.10;6.13;;;15.50;1.00;;;;;;4954151;28;20254;-51
2023/01/01 01:13:51;;;;;;;12.00;5.77;;;15.60;1.00;;;;;;4953191;28;20174;-48
2023/01/01 01:16:24;;;;;;;17.30;6.73;;;15.60;1.00;;;;;;4953347;28;20425;-48
2023/01/01 01:18:51;;;;;;;16.17;6.17;;;15.60;1.00;;;;;;4953015;28;20934;-49
2023/01/01 01:21:19;;;;;;;15.03;6.27;;;15.60;1.00;;;;;;4952295;29;20825;-49
2023/01/01 01:23:45;;;;;;;13.20;5.60;;;15.60;1.00;;;;;;4953028;29;20496;-48
2023/01/01 01:26:12;;;;;;;13.40;5.50;;;15.50;1.00;;;;;;4935949;29;20449;-48
2023/01/01 01:28:38;;;;;;;20.50;6.23;;;15.60;1.00;;;;;;4953098;29;20174;-49
2023/01/01 01:31:04;;;;;;;12.73;6.00;;;15.50;1.00;;;;;;4953397;29;20402;-48
2023/01/01 01:33:30;;;;;;;19.00;6.10;;;15.50;1.00;;;;;;4952916;28;20425;-52
2023/01/01 01:35:55;;;;;;;13.17;6.07;;;15.50;1.00;;;;;;4951975;28;20245;-49
2023/01/01 01:38:21;;;;;;;18.80;5.50;;;15.60;1.00;;;;;;4950845;28;20189;-49
2023/01/01 01:40:47;;;;;;;20.27;5.80;;;15.60;1.00;;;;;;4951990;29;20605;-48
2023/01/01 01:43:31;;;;;;;14.63;5.47;;;15.60;1.00;;;;;;4947525;29;20202;-48
2023/01/01 01:46:00;;;;;;;11.80;5.70;;;15.70;1.00;;;;;;4949163;28;20254;-49
2023/01/01 01:48:27;;;;;;;18.20;6.97;;;15.70;1.00;;;;;;4940143;29;20422;-49
2023/01/01 01:50:55;;;;;;;14.80;5.20;;;15.70;1.00;;;;;;4952494;29;20449;-49
2023/01/01 01:53:30;;;;;;;15.10;5.57;;;15.70;1.00;;;;;;4952223;29;20483;-49
2023/01/01 01:56:03;;;;;;;17.13;5.03;;;15.60;1.00;;;;;;4950928;29;20421;-49
2023/01/01 01:58:31;;;;;;;14.80;5.63;;;15.50;1.00;;;;;;4941644;28;20476;-49
2023/01/01 02:00:56;;;;;;;14.87;5.33;;;15.50;1.00;;;;;;4952918;28;20552;-49
2023/01/01 02:03:35;;;;;;;16.60;4.83;;;15.50;1.00;;;;;;4953054;29;20756;-48
2023/01/01 02:06:01;;;;;;;14.63;5.60;;;15.60;1.00;;;;;;4956421;29;20295;-48
2023/01/01 02:08:28;;;;;;;14.97;4.93;;;15.60;1.00;;;;;;4954322;29;20547;-48
2023/01/01 02:10:54;;;;;;;10.80;4.73;;;15.60;1.00;;;;;;4953564;29;20441;-49
2023/01/01 02:13:20;;;;;;;15.67;4.80;;;15.60;1.00;;;;;;4946047;28;20445;-48
2023/01/01 02:16:11;;;;;;;12.80;5.77;;;15.60;1.00;;;;;;4953330;28;20186;-49
2023/01/01 02:19:09;;;;;;;18.07;4.80;;;15.70;1.00;;;;;;4947974;29;20476;-48
2023/01/01 02:22:13;;;;;;;10.97;5.67;;;15.70;1.00;;;;;;4951311;28;20540;-49
2023/01/01 02:24:48;;;;;;;14.03;5.43;;;15.60;1.00;;;;;;4951779;28;20464;-48
2023/01/01 02:27:26;;;;;;;9.57;4.80;;;15.70;1.00;;;;;;4951958;29;20467;-49
2023/01/01 02:30:06;;;;;;;15.03;5.80;;;15.60;1.00;;;;;;4952483;29;20408;-49
2023/01/01 02:32:50;;;;;;;15.10;5.40;;;15.60;1.00;;;;;;4952779;28;20523;-49
2023/01/01 02:35:36;;;;;;;14.40;5.10;;;15.60;1.00;;;;;;4956019;29;20436;-49
2023/01/01 02:38:35;;;;;;;12.30;5.17;;;15.50;1.00;;;;;;4955245;28;20451;-49
2023/01/01 02:41:07;;;;;;;7.97;4.50;;;15.50;1.00;;;;;;4928648;29;20457;-48
2023/01/01 02:43:33;;;;;;;16.10;4.77;;;15.50;1.00;;;;;;4955766;29;20413;-49
2023/01/01 02:46:05;;;;;;;11.47;5.10;;;15.50;1.00;;;;;;4955285;29;20484;-53
2023/01/01 02:48:36;;;;;;;11.13;5.23;;;15.50;1.00;;;;;;4955351;29;20280;-49
2023/01/01 02:51:47;;;;;;;15.40;6.00;;;15.40;1.00;;;;;;4953385;28;20464;-49
2023/01/01 02:54:37;;;;;;;15.83;5.80;;;15.40;1.00;;;;;;4939992;29;20484;-49
2023/01/01 02:57:09;;;;;;;15.77;5.63;;;15.50;1.00;;;;;;4953402;29;20433;-49
2023/01/01 03:02:48;;;;;;;13.83;6.80;;;15.50;1.00;;;;;;4954266;29;20845;-48
2023/01/01 03:05:32;;;;;;;20.63;5.80;;;15.60;1.00;;;;;;4955586;29;21001;-51
2023/01/01 03:08:18;;;;;;;12.47;6.03;;;15.50;1.00;;;;;;4954840;29;20476;-49
2023/01/01 03:10:52;;;;;;;20.87;7.10;;;15.50;1.00;;;;;;4955224;28;20449;-49
2023/01/01 03:14:16;;;;;;;17.23;6.13;;;15.50;1.00;;;;;;4954873;29;20428;-49
2023/01/01 03:16:42;;;;;;;16.47;6.20;;;15.40;1.00;;;;;;4876539;29;20501;-50
2023/01/01 03:19:20;;;;;;;19.40;6.60;;;15.40;1.00;;;;;;4877243;29;20508;-51
2023/01/01 03:22:06;;;;;;;18.10;6.70;;;15.30;1.00;;;;;;4918970;29;20729;-49
2023/01/01 03:24:34;;;;;;;14.73;6.50;;;15.30;1.00;;;;;;4954277;29;20495;-48
2023/01/01 03:27:29;;;;;;;12.47;7.33;;;15.30;1.00;;;;;;4954663;29;20504;-49
2023/01/01 03:29:58;;;;;;;15.87;7.00;;;15.20;1.00;;;;;;4927078;28;20421;-50
2023/01/01 03:33:02;;;;;;;16.03;7.57;;;15.20;1.00;;;;;;4955075;28;20445;-49
2023/01/01 03:35:34;;;;;;;18.87;7.77;;;15.20;1.00;;;;;;4950853;28;20444;-50
2023/01/01 03:38:02;;;;;;;15.97;8.37;;;15.20;1.00;;;;;;4954686;29;20451;-49
2023/01/01 03:40:32;;;;;;;16.17;8.70;;;15.10;1.00;;;;;;4938842;29;20880;-49
2023/01/01 03:43:12;;;;;;;19.23;8.10;;;15.10;1.00;;;;;;4950643;29;20496;-49
2023/01/01 03:45:42;;;;;;;13.67;7.97;;;15.10;1.00;;;;;;4952194;29;20480;-50
2023/01/01 03:48:09;;;;;;;14.43;9.13;;;15.10;1.00;;;;;;4954191;29;20463;-50
2023/01/01 03:51:07;;;;;;;15.17;7.37;;;15.00;1.00;;;;;;4937398;29;20429;-49
2023/01/01 03:53:39;;;;;;;14.20;8.20;;;15.00;1.00;;;;;;4953820;28;20444;-49
2023/01/01 03:56:09;;;;;;;15.43;7.97;;;15.00;1.00;;;;;;4954715;29;20441;-49
2023/01/01 03:58:44;;;;;;;16.27;8.27;;;14.90;1.00;;;;;;4953918;29;20449;-50
2023/01/01 04:01:25;;;;;;;20.53;7.47;;;15.00;1.00;;;;;;4954702;29;20460;-50
2023/01/01 04:03:51;;;;;;;12.57;7.47;;;15.00;1.00;;;;;;4953640;28;20472;-49
2023/01/01 04:06:17;;;;;;;14.37;7.30;;;15.00;1.00;;;;;;4954383;29;20880;-49
2023/01/01 04:08:45;;;;;;;12.67;6.50;;;15.00;1.00;;;;;;4953726;29;20455;-49
2023/01/01 04:14:02;;;;;;;15.07;7.27;;;15.10;1.00;;;;;;4954021;29;20456;-49
2023/01/01 04:16:28;;;;;;;13.43;6.93;;;15.00;1.00;;;;;;4954304;29;20437;-50
2023/01/01 04:18:54;;;;;;;15.50;6.17;;;15.00;1.00;;;;;;4953999;29;20221;-58
2023/01/01 04:21:19;;;;;;;19.13;6.70;;;15.00;1.00;;;;;;4954196;28;20746;-49
2023/01/01 04:23:45;;;;;;;15.47;6.77;;;15.10;1.00;;;;;;4953195;29;20198;-49
2023/01/01 04:26:13;;;;;;;20.20;6.60;;;15.00;1.00;;;;;;4939657;29;20230;-49
2023/01/01 04:28:39;;;;;;;17.23;7.20;;;15.00;1.00;;;;;;4948869;29;20562;-49
2023/01/01 04:31:04;;;;;;;16.27;6.50;;;14.90;1.00;;;;;;4953833;29;20453;-49
2023/01/01 04:33:31;;;;;;;15.37;7.23;;;15.00;1.00;;;;;;4938058;29;20472;-49
2023/01/01 04:36:05;;;;;;;14.40;8.17;;;14.90;1.00;;;;;;4953818;28;20945;-49
2023/01/01 04:38:32;;;;;;;15.87;7.67;;;14.90;1.00;;;;;;4953491;28;20460;-49
2023/01/01 04:41:00;;;;;;;14.60;7.07;;;14.90;1.00;;;;;;4936600;29;20452;-49
2023/01/01 04:43:25;;;;;;;10.43;6.30;;;14.90;1.00;;;;;;4953467;29;20460;-49
2023/01/01 04:45:59;;;;;;;16.07;6.00;;;14.90;1.00;;;;;;4953609;28;20845;-49
2023/01/01 04:48:25;;;;;;;12.50;6.40;;;15.00;1.00;;;;;;4953208;29;20198;-50
2023/01/01 04:51:03;;;;;;;14.03;5.50;;;15.00;1.00;;;;;;4953328;28;20468;-49
2023/01/01 04:53:30;;;;;;;15.07;6.60;;;15.00;1.00;;;;;;4953146;28;20456;-49
2023/01/01 04:56:05;;;;;;;11.20;6.00;;;15.00;1.00;;;;;;4953254;28;20425;-51
2023/01/01 04:58:32;;;;;;;14.80;6.00;;;15.00;1.00;;;;;;4952979;29;20459;-49
2023/01/01 05:00:57;;;;;;;14.47;5.30;;;15.00;1.00;;;;;;4953663;29;20470;-49
2023/01/01 05:03:23;;;;;;;11.67;5.47;;;15.00;1.00;;;;;;4952897;28;20473;-50
2023/01/01 05:06:10;;;;;;;12.77;5.37;;;15.00;1.00;;;;;;4953368;29;20612;-49
2023/01/01 05:08:38;;;;;;;8.80;5.10;;;15.00;1.00;;;;;;4952649;29;20229;-49
2023/01/01 05:11:10;;;;;;;18.43;5.20;;;15.00;1.00;;;;;;4953432;29;20472;-49
2023/01/01 05:13:37;;;;;;;8.70;4.80;;;15.00;1.00;;;;;;4939750;29;20440;-49
2023/01/01 05:16:09;;;;;;;12.87;5.17;;;15.10;1.00;;;;;;4953759;29;20925;-49
2023/01/01 05:18:35;;;;;;;9.50;4.23;;;15.10;1.00;;;;;;4953006;29;20938;-49
2023/01/01 05:21:04;;;;;;;17.00;4.80;;;15.00;1.00;;;;;;4953197;28;20469;-49
2023/01/01 05:23:29;;;;;;;15.13;5.33;;;15.10;1.00;;;;;;4952720;29;20453;-49
2023/01/01 05:25:55;;;;;;;9.80;4.50;;;15.00;1.00;;;;;;4953016;29;20576;-49
2023/01/01 05:28:22;;;;;;;10.60;4.13;;;15.10;1.00;;;;;;4952711;28;20602;-49
2023/01/01 05:30:51;;;;;;;11.17;4.73;;;15.10;1.00;;;;;;4953217;29;20436;-48
2023/01/01 05:33:18;;;;;;;8.50;4.53;;;15.10;1.00;;;;;;4951828;28;20849;-49
2023/01/01 05:35:44;;;;;;;10.00;4.20;;;15.20;1.00;;;;;;4953757;29;20421;-49
2023/01/01 05:38:09;;;;;;;10.87;4.57;;;15.10;1.00;;;;;;4952924;28;20507;-53
2023/01/01 05:40:38;;;;;;;8.97;4.10;;;15.10;1.00;;;;;;4954037;29;20208;-49
2023/01/01 05:43:04;;;;;;;13.93;4.70;;;15.10;1.00;;;;;;4951913;29;20197;-49
2023/01/01 05:45:30;;;;;;;12.40;4.50;;;15.10;1.00;;;;;;4952424;29;20966;-49
2023/01/01 05:47:55;;;;;;;13.60;4.80;;;15.10;1.00;;;;;;4951861;29;20477;-50
2023/01/01 05:50:21;;;;;;;10.47;4.70;;;15.20;1.00;;;;;;4953204;29;20190;-49
2023/01/01 05:52:46;;;;;;;8.93;3.90;;;15.20;1.00;;;;;;4952932;29;20233;-49
2023/01/01 05:55:12;;;;;;;13.20;4.20;;;15.20;1.00;;;;;;4952477;28;20201;-54
2023/01/01 05:57:38;;;;;;;7.13;4.00;;;15.30;1.00;;;;;;4950975;29;20209;-49
2023/01/01 06:00:04;;;;;;;10.77;4.17;;;15.30;1.00;;;;;;4953431;28;20683;-49
2023/01/01 06:02:30;;;;;;;10.70;3.53;;;15.30;1.00;;;;;;4952052;29;20289;-49
2023/01/01 06:04:55;;;;;;;9.13;4.00;;;15.30;1.00;;;;;;4952966;28;20564;-49
2023/01/01 06:07:21;;;;;;;16.33;4.33;;;15.30;1.00;;;;;;4953020;28;20492;-50
2023/01/01 06:09:47;;;;;;;11.77;4.03;;;15.30;1.00;;;;;;4956577;29;20269;-49
2023/01/01 06:12:12;;;;;;;8.93;3.43;;;15.30;1.00;;;;;;4956974;29;20248;-50
2023/01/01 06:14:38;;;;;;;9.50;3.67;;;15.30;1.00;;;;;;4956650;28;20193;-49
2023/01/01 06:17:03;;;;;;;10.40;4.13;;;15.30;1.00;;;;;;4956027;28;20256;-49
2023/01/01 06:19:29;;;;;;;10.53;4.10;;;15.30;1.00;;;;;;4956928;29;20536;-49
2023/01/01 06:21:54;;;;;;;13.70;3.73;;;15.30;1.00;;;;;;4955214;29;20304;-49
2023/01/01 06:24:20;;;;;;;7.10;3.20;;;15.30;1.00;;;;;;4956094;29;20695;-49
2023/01/01 06:26:46;;;;;;;13.40;3.67;;;15.20;1.00;;;;;;4949166;29;20606;-53
2023/01/01 06:29:11;;;;;;;10.10;4.27;;;15.30;1.00;;;;;;4956448;29;20201;-49
2023/01/01 06:31:37;;;;;;;12.23;3.67;;;15.30;1.00;;;;;;4938501;29;20186;-49
2023/01/01 06:34:02;;;;;;;8.57;3.10;;;15.30;1.00;;;;;;4955965;29;20193;-49
2023/01/01 06:36:28;;;;;;;9.90;3.70;;;15.30;1.00;;;;;;4956085;28;20194;-49
2023/01/01 06:38:55;;;;;;;11.73;4.00;;;15.20;1.00;;;;;;4955592;28;20186;-50
2023/01/01 06:41:26;;;;;;;10.87;3.03;;;15.20;1.00;;;;;;4955906;28;20181;-49
2023/01/01 06:43:51;;;;;;;9.90;4.03;;;15.20;1.00;;;;;;4955237;29;20448;-49
2023/01/01 06:46:25;;;;;;;9.00;3.87;;;15.30;1.00;;;;;;4956009;29;20875;-51
2023/01/01 06:48:56;;;;;;;14.33;3.57;;;15.20;1.00;;;;;;4955291;29;20240;-48
2023/01/01 06:51:31;;;;;;;6.63;3.60;;;15.10;1.00;;;;;;4953171;29;20451;-49
2023/01/01 06:54:01;;;;;;;8.80;3.33;;;15.10;1.00;;;;;;4955144;28;20531;-49
2023/01/01 06:56:27;;;;;;;8.87;3.10;;;15.10;1.00;;;;;;4955662;28;20915;-49
2023/01/01 06:58:53;;;;;;;7.73;3.63;;;15.10;1.00;;;;;;4954525;29;20472;-49
2023/01/01 07:01:21;;;;;;;10.43;3.73;;;15.00;1.00;;;;;;4954300;29;20453;-49
2023/01/01 07:03:53;;;;;;;12.90;3.80;;;15.10;1.00;;;;;;4953820;29;20208;-49
2023/01/01 07:06:18;;;;;;;7.63;3.50;;;15.10;1.00;;;;;;4952751;29;20484;-49
2023/01/01 07:08:44;;;;;;;7.50;3.43;;;15.00;1.00;;;;;;4943672;29;21055;-49
2023/01/01 07:11:09;;;;;;;8.33;3.27;;;15.00;1.00;;;;;;4954836;29;20204;-48
2023/01/01 07:13:35;;;;;;;6.13;3.10;;;15.00;1.00;;;;;;4954434;29;20554;-48
2023/01/01 07:16:01;;;;;;;6.13;3.50;;;15.00;1.00;;;;;;4955281;29;20186;-49
2023/01/01 07:18:27;;;;;;;11.10;3.37;;;15.00;1.00;;;;;;4954589;28;20198;-49
2023/01/01 07:20:54;;;;;;;10.23;3.67;;;15.00;1.00;;;;;;4954853;29;20452;-48
2023/01/01 07:23:20;;;;;;;5.87;3.00;;;14.90;1.00;;;;;;4937858;29;20660;-48
2023/01/01 07:25:48;;;;;;;8.60;2.80;;;14.90;1.00;;;;;;4955378;28;20524;-49
2023/01/01 07:28:14;;;;;;;9.03;2.90;;;14.90;1.00;;;;;;4954724;28;20213;-48
2023/01/01 07:30:40;;;;;;;8.20;2.93;;;14.90;1.00;;;;;;4955290;28;20414;-49
2023/01/01 07:33:09;;;;;;;6.60;2.93;;;14.80;1.00;;;;;;4954542;29;20280;-49
2023/01/01 07:35:34;;;;;;;8.43;2.77;;;14.80;1.00;;;;;;4954896;28;20182;-49
2023/01/01 07:38:00;;;;;;;4.60;3.07;;;14.80;1.00;;;;;;4953187;29;20453;-50
2023/01/01 07:40:25;;;;;;;10.10;3.20;;;14.70;1.00;;;;;;4955371;28;20189;-49
2023/01/01 07:42:51;;;;;;;14.20;3.37;;;14.70;1.00;;;;;;4955281;28;20196;-49
2023/01/01 07:45:16;;;;;;;6.67;3.03;;;14.70;1.00;;;;;;4954887;29;20232;-49
2023/01/01 07:47:42;;;;;;;10.90;3.00;;;14.70;1.00;;;;;;4954713;29;20216;-49
2023/01/01 07:50:16;;;;;;;7.10;2.43;;;14.70;1.00;;;;;;4953492;29;20182;-49
2023/01/01 07:52:41;;;;;;;6.47;2.50;;;14.70;1.00;;;;;;4951405;29;20201;-49
2023/01/01 07:55:10;;;;;;;9.50;2.70;;;14.60;1.00;;;;;;4954025;28;20452;-49
2023/01/01 07:57:36;;;;;;;5.70;2.33;;;14.70;1.00;;;;;;4954460;29;20190;-48
2023/01/01 08:00:01;;;;;;;8.17;2.50;;;14.70;1.00;;;;;;4954582;29;20422;-49
2023/01/01 08:02:27;;;;;;;5.73;1.97;;;14.70;1.00;;;;;;4936612;29;20205;-49
2023/01/01 08:04:52;;;;;;;6.00;1.97;;;14.80;1.00;;;;;;4954063;28;20217;-49
2023/01/01 08:07:18;;;;;;;8.30;2.10;;;14.80;1.00;;;;;;4954669;29;20170;-49
2023/01/01 08:09:44;;;;;;;4.80;1.93;;;14.80;1.00;;;;;;4954485;28;20574;-48
2023/01/01 08:12:09;;;;;;;5.47;2.20;;;14.70;1.00;;;;;;4954135;29;20489;-49
2023/01/01 08:14:35;;;;;;;5.30;2.10;;;14.70;1.00;;;;;;4953457;29;20272;-49
2023/01/01 08:17:00;;;;;;;6.53;2.10;;;14.70;1.00;;;;;;4954476;28;20189;-50
2023/01/01 08:19:26;;;;;;;4.97;1.83;;;14.70;1.00;;;;;;4954452;29;20176;-49
2023/01/01 08:21:51;;;;;;;6.00;1.73;;;14.70;1.00;;;;;;4953633;28;20246;-49
2023/01/01 08:24:17;;;;;;;6.80;2.27;;;14.70;1.00;;;;;;4953723;28;20222;-48
2023/01/01 08:26:42;;;;;;;5.73;2.53;;;14.70;1.00;;;;;;4952904;29;20199;-50
2023/01/01 08:29:10;;;;;;;4.10;1.80;;;14.80;1.00;;;;;;4954108;29;20166;-49
2023/01/01 08:31:35;;;;;;;4.40;1.63;;;14.70;1.00;;;;;;4953070;28;20186;-47
2023/01/01 08:34:01;;;;;;;8.00;1.90;;;14.70;1.00;;;;;;4934398;29;20845;-48
2023/01/01 08:36:26;;;;;;;7.80;1.60;;;14.60;1.00;;;;;;4957182;28;20196;-48
2023/01/01 08:38:52;;;;;;;2.80;1.43;;;14.60;1.00;;;;;;4937401;29;20195;-49
2023/01/01 08:41:18;;;;;;;3.20;1.70;;;14.60;1.00;;;;;;4951616;29;20198;-49
2023/01/01 08:43:43;;;;;;;6.60;1.80;;;14.60;1.00;;;;;;4953618;29;20635;-50
2023/01/01 08:46:09;;;;;;;3.37;1.40;;;14.70;1.00;;;;;;4953352;28;20663;-49
2023/01/01 08:48:34;;;;;;;5.83;1.90;;;14.60;1.00;;;;;;4953409;29;20713;-49
2023/01/01 08:51:00;;;;;;;6.80;1.63;;;14.60;1.00;;;;;;4953474;29;20190;-49
2023/01/01 08:53:30;;;;;;;9.87;1.57;;;14.60;1.00;;;;;;4951467;29;20240;-51
2023/01/01 08:56:00;;;;;;;8.63;1.67;;;14.70;1.00;;;;;;4953225;29;20227;-49
2023/01/01 08:58:26;;;;;;;5.80;1.90;;;14.70;1.00;;;;;;4950784;29;20484;-49
2023/01/01 09:00:52;;;;;;;2.80;1.30;;;14.70;1.00;;;;;;4948716;29;20585;-49
2023/01/01 09:03:18;;;;;;;5.30;1.43;;;14.70;1.00;;;;;;4953069;29;20460;-49
2023/01/01 09:05:44;;;;;;;4.07;1.47;;;14.70;1.00;;;;;;4951137;28;20469;-49
2023/01/01 09:08:14;;;;;;;1.90;1.40;;;14.80;1.00;;;;;;4952847;29;20189;-49
2023/01/01 09:10:42;;;;;;;4.33;1.83;;;14.70;1.00;;;;;;4953684;28;20452;-50
2023/01/01 09:13:11;;;;;;;4.07;2.00;;;14.80;1.00;;;;;;4953658;28;20508;-49
2023/01/01 09:15:38;;;;;;;3.87;1.40;;;14.70;1.00;;;;;;4953262;29;20422;-49
2023/01/01 09:18:04;;;;;;;4.20;1.43;;;14.80;1.00;;;;;;4953399;29;20444;-49
2023/01/01 09:20:30;;;;;;;9.80;2.30;;;14.80;1.00;;;;;;4953162;28;20517;-50
2023/01/01 09:22:55;;;;;;;5.30;1.50;;;14.80;1.00;;;;;;4953384;29;20358;-49
2023/01/01 09:25:21;;;;;;;4.00;2.10;;;14.70;1.00;;;;;;4952922;29;20224;-49
2023/01/01 09:27:46;;;;;;;6.13;2.03;;;14.70;1.00;;;;;;4953513;28;20240;-49
2023/01/01 09:30:12;;;;;;;5.53;1.80;;;14.60;1.00;;;;;;4920319;29;20197;-49
2023/01/01 09:32:38;;;;;;;3.23;1.67;;;14.50;1.00;;;;;;4953250;29;20178;-49
2023/01/01 09:35:04;;;;;;;6.83;1.50;;;14.50;1.00;;;;;;4953351;29;20420;-49
2023/01/01 09:37:30;;;;;;;7.50;1.63;;;14.50;1.00;;;;;;4953210;29;20525;-49
2023/01/01 09:39:56;;;;;;;4.97;1.70;;;14.60;1.00;;;;;;4935041;29;20460;-49
2023/01/01 09:42:44;;;;;;;7.47;1.77;;;14.60;1.00;;;;;;4953828;28;20199;-49
2023/01/01 09:45:24;;;;;;;6.30;1.90;;;14.60;1.00;;;;;;4955674;28;20495;-50
2023/01/01 09:47:55;;;;;;;3.53;1.70;;;14.50;1.00;;;;;;4957166;29;20405;-50
2023/01/01 09:50:27;;;;;;;1.90;1.30;;;14.50;1.00;;;;;;4955870;29;20507;-49
2023/01/01 09:52:59;;;;;;;3.80;1.80;;;14.50;1.00;;;;;;4956382;29;20536;-49
2023/01/01 09:55:28;;;;;;;3.33;1.60;;;14.40;1.00;;;;;;4955088;29;20480;-49
2023/01/01 09:57:55;;;;;;;2.60;1.53;;;14.30;1.00;;;;;;4957119;29;20938;-49
2023/01/01 10:00:21;;;;;;;3.53;1.47;;;14.40;1.00;;;;;;4956343;28;20961;-48
2023/01/01 10:02:55;;;;;;;3.20;1.30;;;14.40;1.00;;;;;;4956678;29;20425;-48
2023/01/01 10:05:33;;;;;;;5.73;1.70;;;14.40;1.00;;;;;;4955632;29;20482;-48
2023/01/01 10:08:07;;;;;;;3.50;1.87;;;14.40;1.00;;;;;;4956386;29;20429;-48
2023/01/01 10:10:35;;;;;;;3.07;1.33;;;14.40;1.00;;;;;;4955978;29;20448;-49
2023/01/01 10:13:13;;;;;;;2.53;1.50;;;14.40;1.00;;;;;;4957253;29;20935;-49
2023/01/01 10:15:53;;;;;;;4.70;1.40;;;14.40;1.00;;;;;;4956400;28;20872;-48
2023/01/01 10:18:24;;;;;;;3.50;1.37;;;14.30;1.00;;;;;;4955823;28;20480;-48
2023/01/01 10:20:57;;;;;;;5.00;1.40;;;14.40;1.00;;;;;;4955920;29;20538;-49
2023/01/01 10:23:27;;;;;;;5.17;1.50;;;14.30;1.00;;;;;;4955231;28;20910;-48
2023/01/01 10:25:56;;;;;;;11.43;1.93;;;14.30;1.00;;;;;;4955528;28;20969;-48
2023/01/01 10:29:01;;;;;;;8.53;1.90;;;14.30;1.00;;;;;;4955807;29;20436;-48
2023/01/01 10:31:30;;;;;;;8.20;1.70;;;14.30;1.00;;;;;;4948242;29;20440;-49
2023/01/01 10:33:56;;;;;;;7.27;2.50;;;14.50;1.00;;;;;;4955782;29;20469;-49
2023/01/01 10:36:21;;;;;;;5.80;1.90;;;14.60;1.00;;;;;;4955203;29;20461;-49
2023/01/01 10:38:48;;;;;;;4.07;1.60;;;14.60;1.00;;;;;;4956654;28;20480;-49
2023/01/01 10:41:14;;;;;;;4.53;1.73;;;14.70;1.00;;;;;;4937354;29;20566;-49
2023/01/01 10:43:40;;;;;;;3.67;1.80;;;14.90;1.00;;;;;;4956319;29;20780;-49
2023/01/01 10:46:12;;;;;;;3.17;1.70;;;15.20;1.00;;;;;;4956287;29;20520;-50
2023/01/01 10:48:37;;;;;;;4.77;1.77;;;15.90;1.00;;;;;;4956104;29;20186;-49
2023/01/01 10:51:05;;;;;;;5.47;1.70;;;16.60;1.00;;;;;;4956078;28;20441;-49
2023/01/01 10:53:40;;;;;;;4.90;1.67;;;17.00;1.00;;;;;;4955775;28;20199;-49
2023/01/01 10:56:14;;;;;;;6.47;2.10;;;17.50;1.00;;;;;;4954381;29;20552;-49
2023/01/01 10:58:49;;;;;;;3.97;1.50;;;18.40;1.00;;;;;;4956550;29;20585;-50
2023/01/01 11:01:19;;;;;;;6.83;1.67;;;19.70;1.00;;;;;;4956453;28;20997;-50
2023/01/01 11:04:01;;;;;;;1.83;1.20;;;20.60;1.00;;;;;;4955179;29;20441;-60
2023/01/01 11:06:41;;;;;;;7.43;1.60;;;20.40;1.00;;;;;;4938443;29;20485;-49
2023/01/01 11:09:27;;;;;;;4.50;1.87;;;20.20;1.00;;;;;;4952711;28;20489;-49
2023/01/01 11:12:04;;;;;;;3.37;1.57;;;19.60;1.00;;;;;;4956597;29;20433;-49
2023/01/01 11:14:49;;;;;;;14.80;1.80;;;18.90;1.00;;;;;;4938240;29;20483;-49
2023/01/01 11:17:24;;;;;;;4.53;1.50;;;18.30;1.00;;;;;;4955820;29;20513;-48
2023/01/01 11:19:50;;;;;;;4.87;1.60;;;17.60;1.00;;;;;;4955124;29;20539;-48
2023/01/01 11:22:47;;;;;;;4.27;1.47;;;17.00;1.00;;;;;;4938169;29;20492;-48
2023/01/01 11:25:20;;;;;;;6.20;1.57;;;16.60;1.00;;;;;;4947274;29;20559;-47
2023/01/01 11:27:47;;;;;;;7.03;1.83;;;16.50;1.00;;;;;;4955099;29;20457;-48
2023/01/01 11:30:27;;;;;;;4.80;2.67;;;16.70;1.00;;;;;;4954801;29;20895;-48
2023/01/01 11:33:03;;;;;;;3.50;1.73;;;16.80;1.00;;;;;;4940114;29;20449;-48
2023/01/01 11:35:33;;;;;;;7.77;1.40;;;16.70;1.00;;;;;;4935837;29;20452;-48
2023/01/01 11:37:59;;;;;;;4.47;1.20;;;16.60;1.00;;;;;;4936118;29;20474;-49
2023/01/01 11:40:33;;;;;;;5.63;1.40;;;16.20;1.00;;;;;;4941603;29;20801;-48
2023/01/01 11:43:01;;;;;;;4.93;1.50;;;16.00;1.00;;;;;;4948187;29;20193;-48
2023/01/01 11:45:38;;;;;;;10.40;2.03;;;16.00;1.00;;;;;;4954504;29;20477;-48
2023/01/01 11:48:14;;;;;;;6.93;1.50;;;15.90;1.00;;;;;;4944237;29;20445;-48
2023/01/01 11:50:48;;;;;;;3.87;1.00;;;15.80;1.00;;;;;;4937417;29;20414;-49
2023/01/01 11:53:40;;;;;;;13.37;1.57;;;15.70;1.00;;;;;;4935801;29;20537;-48
2023/01/01 11:56:21;;;;;;;4.77;1.10;;;15.50;1.00;;;;;;4946251;28;20508;-48
2023/01/01 11:59:11;;;;;;;4.77;1.00;;;15.30;1.00;;;;;;4939258;29;20501;-49
2023/01/01 12:01:51;;;;;;;3.13;1.20;;;15.30;1.00;;;;;;4947127;28;20854;-48
2023/01/01 12:04:23;;;;;;;4.63;1.30;;;15.20;1.00;;;;;;4939326;29;20521;-48
2023/01/01 12:07:01;;;;;;;5.40;1.20;;;15.30;1.00;;;;;;4939687;29;20458;-48
2023/01/01 12:09:54;;;;;;;7.80;1.50;;;15.40;1.00;;;;;;4935614;29;20952;-48
2023/01/01 12:12:33;;;;;;;5.17;1.60;;;15.60;1.00;;;;;;4930151;29;20485;-48
2023/01/01 12:15:17;;;;;;;2.27;1.13;;;16.00;1.00;;;;;;4944821;29;20454;-50
2023/01/01 12:17:48;;;;;;;5.87;1.77;;;16.20;1.00;;;;;;4941678;29;20464;-48
2023/01/01 12:20:29;;;;;;;5.10;1.20;;;16.50;1.00;;;;;;4942126;29;20513;-48
2023/01/01 12:22:56;;;;;;;3.50;1.53;;;16.50;1.00;;;;;;4938618;29;20494;-49
2023/01/01 12:25:22;;;;;;;5.27;1.33;;;16.70;1.00;;;;;;4949300;29;20958;-49
2023/01/01 12:28:01;;;;;;;12.27;4.67;;;16.80;1.00;;;;;;4951246;29;20546;-48
2023/01/01 12:30:39;;;;;;;4.90;1.23;;;17.00;1.00;;;;;;4952795;29;20193;-48
2023/01/01 12:33:26;;;;;;;7.17;1.40;;;17.10;1.00;;;;;;4950609;29;20480;-49
2023/01/01 12:36:01;;;;;;;3.70;1.20;;;17.70;1.00;;;;;;4941705;29;20471;-48
2023/01/01 12:38:39;;;;;;;4.97;1.57;;;18.70;1.00;;;;;;4949192;29;20971;-48
2023/01/01 12:41:19;;;;;;;5.70;1.43;;;20.20;1.00;;;;;;4946878;29;20515;-50
2023/01/01 12:44:07;;;;;;;2.90;1.17;;;21.30;1.00;;;;;;4946651;29;20504;-49
2023/01/01 12:47:06;;;;;;;3.20;1.17;;;22.30;1.00;;;;;;4951348;28;20980;-48
2023/01/01 12:49:56;;;;;;;3.47;1.20;;;23.40;1.00;;;;;;4951924;29;20953;-48
2023/01/01 12:52:55;;;;;;;4.17;1.30;;;22.90;1.00;;;;;;4940952;29;20478;-48
2023/01/01 12:55:26;;;;;;;2.87;1.23;;;21.50;1.00;;;;;;4949528;29;20433;-49
2023/01/01 12:58:06;;;;;;;2.43;1.10;;;20.90;1.00;;;;;;4954490;28;21152;-49
2023/01/01 13:00:36;;;;;;;7.30;1.30;;;20.70;1.00;;;;;;4953721;29;20429;-49
2023/01/01 13:03:11;;;;;;;2.67;1.30;;;21.10;1.00;;;;;;4936531;29;20782;-49
2023/01/01 13:05:41;;;;;;;3.53;1.00;;;21.00;1.00;;;;;;4935984;29;21018;-50
2023/01/01 13:08:07;;;;;;;7.50;1.40;;;21.20;1.00;;;;;;4954104;29;20445;-48
2023/01/01 13:10:37;;;;;;;3.03;1.27;;;20.10;1.00;;;;;;4954009;29;20425;-49
2023/01/01 13:13:03;;;;;;;4.13;1.30;;;18.80;1.00;;;;;;4953630;29;20197;-48
2023/01/01 13:15:43;;;;;;;13.77;1.47;;;18.00;1.00;;;;;;4953890;28;20520;-48
2023/01/01 13:18:14;;;;;;;6.20;1.53;;;17.20;1.00;;;;;;4953327;28;21340;-48